createdAt,value
2022-09-23T00:01:10.098Z,19.67
2022-09-23T00:03:39.166Z,19.55
2022-09-23T00:06:11.712Z,21.50
2022-09-23T00:08:39.468Z,19.33
2022-09-23T00:11:08.145Z,19.95
2022-09-23T00:13:36.384Z,17.00
2022-09-23T00:16:07.456Z,24.13
2022-09-23T00:18:34.360Z,21.20
2022-09-23T00:21:05.564Z,20.33
2022-09-23T00:23:33.028Z,19.63
2022-09-23T00:26:01.858Z,22.80
2022-09-23T00:28:28.771Z,20.08
2022-09-23T00:30:55.349Z,22.55
2022-09-23T00:33:22.186Z,19.77
2022-09-23T00:35:49.881Z,36.67
2022-09-23T00:38:17.199Z,18.98
2022-09-23T00:40:46.139Z,22.33
2022-09-23T00:43:14.842Z,23.88
2022-09-23T00:45:46.966Z,26.73
2022-09-23T00:48:20.624Z,25.13
2022-09-23T00:50:54.290Z,24.80
2022-09-23T00:53:26.608Z,22.75
2022-09-23T00:56:00.601Z,23.33
2022-09-23T00:58:32.626Z,21.97
2022-09-23T01:01:00.694Z,26.98
2022-09-23T01:03:28.144Z,21.23
2022-09-23T01:05:56.013Z,21.08
2022-09-23T01:08:23.882Z,24.98
2022-09-23T01:11:27.613Z,21.63
2022-09-23T01:14:16.685Z,17.02
2022-09-23T01:16:55.641Z,22.27
2022-09-23T01:19:34.247Z,22.33
2022-09-23T01:22:28.223Z,20.23
2022-09-23T01:25:25.893Z,22.80
2022-09-23T01:28:05.586Z,20.85
2022-09-23T01:31:07.630Z,19.05
2022-09-23T01:33:34.673Z,24.17
2022-09-23T01:36:19.217Z,17.70
2022-09-23T01:39:13.048Z,22.05
2022-09-23T01:41:45.484Z,21.40
2022-09-23T01:44:21.933Z,22.67
2022-09-23T01:46:52.992Z,21.10
2022-09-23T01:49:27.712Z,19.80
2022-09-23T01:52:03.568Z,18.15
2022-09-23T01:54:38.934Z,24.42
2022-09-23T01:57:13.529Z,20.70
2022-09-23T01:59:54.970Z,18.35
2022-09-23T02:02:30.808Z,24.35
2022-09-23T02:05:00.437Z,22.60
2022-09-23T02:07:29.727Z,19.90
2022-09-23T02:10:13.528Z,19.83
2022-09-23T02:12:45.603Z,19.77
2022-09-23T02:15:17.017Z,19.23
2022-09-23T02:17:55.680Z,22.73
2022-09-23T02:20:31.004Z,18.95
2022-09-23T02:23:07.690Z,21.13
2022-09-23T02:25:57.370Z,20.60
2022-09-23T02:28:41.932Z,24.58
2022-09-23T02:31:13.191Z,22.38
2022-09-23T02:33:52.806Z,21.45
2022-09-23T02:36:27.792Z,23.55
2022-09-23T02:41:52.000Z,24.70
2022-09-23T02:44:20.077Z,21.58
2022-09-23T02:46:47.033Z,24.52
2022-09-23T02:49:20.598Z,21.88
2022-09-23T02:51:47.196Z,23.83
2022-09-23T02:54:18.667Z,24.30
2022-09-23T02:56:45.517Z,22.77
2022-09-23T02:59:13.103Z,20.98
2022-09-23T03:01:54.356Z,21.75
2022-09-23T03:05:05.232Z,20.45
2022-09-23T03:08:12.914Z,22.27
2022-09-23T03:10:59.587Z,19.92
2022-09-23T03:14:27.812Z,20.45
2022-09-23T03:17:07.472Z,22.60
2022-09-23T03:19:48.428Z,19.50
2022-09-23T03:22:25.132Z,21.30
2022-09-23T03:24:54.266Z,23.00
2022-09-23T03:27:25.873Z,21.80
2022-09-23T03:29:54.335Z,26.10
2022-09-23T03:32:24.818Z,22.75
2022-09-23T03:34:54.269Z,22.40
2022-09-23T03:37:26.360Z,20.50
2022-09-23T03:40:19.416Z,18.65
2022-09-23T03:42:48.945Z,20.38
2022-09-23T03:45:20.398Z,16.20
2022-09-23T03:47:47.108Z,19.42
2022-09-23T03:50:14.465Z,17.33
2022-09-23T03:52:41.085Z,19.08
2022-09-23T03:55:08.195Z,19.00
2022-09-23T03:57:35.019Z,20.15
2022-09-23T04:00:01.850Z,23.35
2022-09-23T04:02:28.422Z,20.90
2022-09-23T04:04:56.112Z,18.38
2022-09-23T04:07:22.691Z,17.90
2022-09-23T04:09:49.201Z,20.02
2022-09-23T04:12:16.853Z,21.42
2022-09-23T04:14:44.012Z,17.17
2022-09-23T04:17:11.297Z,16.27
2022-09-23T04:19:37.832Z,21.50
2022-09-23T04:22:05.252Z,19.42
2022-09-23T04:24:31.793Z,18.77
2022-09-23T04:26:58.439Z,19.63
2022-09-23T04:29:25.572Z,20.45
2022-09-23T04:31:53.000Z,24.67
2022-09-23T04:34:20.449Z,16.60
2022-09-23T04:36:48.721Z,17.70
2022-09-23T04:39:16.750Z,21.70
2022-09-23T04:41:44.750Z,21.67
2022-09-23T04:44:12.638Z,21.80
2022-09-23T04:46:43.367Z,20.65
2022-09-23T04:49:10.057Z,19.15
2022-09-23T04:51:36.640Z,18.85
2022-09-23T04:54:03.210Z,23.00
2022-09-23T04:56:34.249Z,16.88
2022-09-23T04:59:01.873Z,15.68
2022-09-23T05:01:34.640Z,18.33
2022-09-23T05:04:14.045Z,21.95
2022-09-23T05:06:44.118Z,18.55
2022-09-23T05:09:17.265Z,23.42
2022-09-23T05:11:45.504Z,15.85
2022-09-23T05:14:12.155Z,13.93
2022-09-23T05:16:38.745Z,20.75
2022-09-23T05:19:05.664Z,15.63
2022-09-23T05:21:32.289Z,15.40
2022-09-23T05:24:00.778Z,18.27
2022-09-23T05:26:30.552Z,13.50
2022-09-23T05:28:58.466Z,15.07
2022-09-23T05:31:27.418Z,17.63
2022-09-23T05:34:04.810Z,16.23
2022-09-23T05:36:37.882Z,16.27
2022-09-23T05:39:06.570Z,16.17
2022-09-23T05:41:33.988Z,21.88
2022-09-23T05:44:01.276Z,16.80
2022-09-23T05:46:29.950Z,19.20
2022-09-23T05:49:02.076Z,18.83
2022-09-23T05:51:31.404Z,17.77
2022-09-23T05:53:59.159Z,14.80
2022-09-23T05:56:27.744Z,14.00
2022-09-23T05:58:57.054Z,14.40
2022-09-23T06:01:26.638Z,16.38
2022-09-23T06:03:55.392Z,15.38
2022-09-23T06:06:27.964Z,27.95
2022-09-23T06:08:54.500Z,18.90
2022-09-23T06:11:21.589Z,15.90
2022-09-23T06:13:49.436Z,16.17
2022-09-23T06:16:16.504Z,15.38
2022-09-23T06:18:45.166Z,17.17
2022-09-23T06:21:17.449Z,12.98
2022-09-23T06:23:45.043Z,17.00
2022-09-23T06:26:13.931Z,20.10
2022-09-23T06:28:43.785Z,15.95
2022-09-23T06:31:15.415Z,22.50
2022-09-23T06:33:43.296Z,16.92
2022-09-23T06:36:10.678Z,16.08
2022-09-23T06:38:41.962Z,15.93
2022-09-23T06:41:09.124Z,19.50
2022-09-23T06:43:35.877Z,15.93
2022-09-23T06:46:05.921Z,15.13
2022-09-23T06:48:35.297Z,15.57
2022-09-23T06:51:04.932Z,14.40
2022-09-23T06:53:32.350Z,15.15
2022-09-23T06:56:11.401Z,16.45
2022-09-23T06:58:39.026Z,17.55
2022-09-23T07:01:08.322Z,15.40
2022-09-23T07:03:35.561Z,16.02
2022-09-23T07:06:02.948Z,17.85
2022-09-23T07:08:30.916Z,15.68
2022-09-23T07:10:59.830Z,15.27
2022-09-23T07:13:27.493Z,16.52
2022-09-23T07:15:58.320Z,14.85
2022-09-23T07:18:26.847Z,16.17
2022-09-23T07:20:54.750Z,15.18
2022-09-23T07:23:21.316Z,15.15
2022-09-23T07:25:49.522Z,15.80
2022-09-23T07:28:16.056Z,16.23
2022-09-23T07:30:56.239Z,19.40
2022-09-23T07:33:32.992Z,14.57
2022-09-23T07:36:11.136Z,15.48
2022-09-23T07:38:44.242Z,18.15
2022-09-23T07:41:14.382Z,21.98
2022-09-23T07:43:41.247Z,14.43
2022-09-23T07:46:11.175Z,14.75
2022-09-23T07:48:38.693Z,18.70
2022-09-23T07:51:16.529Z,11.02
2022-09-23T07:53:43.296Z,17.83
2022-09-23T07:56:10.026Z,19.30
2022-09-23T07:58:36.609Z,17.10
2022-09-23T08:01:09.037Z,10.65
2022-09-23T08:03:36.356Z,11.30
2022-09-23T08:06:08.611Z,11.93
2022-09-23T08:08:35.875Z,13.38
2022-09-23T08:11:04.408Z,12.15
2022-09-23T08:13:31.013Z,10.48
2022-09-23T08:15:58.334Z,11.50
2022-09-23T08:18:25.573Z,11.57
2022-09-23T08:20:52.302Z,17.17
2022-09-23T08:23:19.936Z,14.13
2022-09-23T08:25:47.320Z,12.38
2022-09-23T08:28:18.761Z,21.20
2022-09-23T08:30:48.364Z,15.15
2022-09-23T08:33:19.672Z,13.07
2022-09-23T08:35:49.349Z,12.77
2022-09-23T08:38:16.264Z,14.35
2022-09-23T08:40:45.044Z,13.93
2022-09-23T08:43:22.805Z,13.32
2022-09-23T08:45:51.158Z,14.40
2022-09-23T08:48:28.587Z,14.32
2022-09-23T08:51:11.387Z,12.82
2022-09-23T08:53:38.814Z,13.90
2022-09-23T08:56:17.339Z,12.30
2022-09-23T08:58:49.326Z,16.20
2022-09-23T09:01:41.818Z,12.23
2022-09-23T09:04:14.557Z,14.98
2022-09-23T09:06:53.531Z,12.77
2022-09-23T09:09:30.411Z,14.40
2022-09-23T09:12:11.502Z,12.75
2022-09-23T09:14:50.200Z,13.27
2022-09-23T09:17:48.798Z,9.38
2022-09-23T09:20:17.269Z,20.40
2022-09-23T09:22:52.816Z,11.60
2022-09-23T09:25:37.984Z,9.30
2022-09-23T09:28:30.913Z,8.48
2022-09-23T09:31:01.350Z,8.90
2022-09-23T09:33:45.595Z,8.50
2022-09-23T09:36:23.749Z,9.18
2022-09-23T09:38:51.277Z,7.88
2022-09-23T09:41:21.468Z,9.07
2022-09-23T09:43:53.448Z,9.48
2022-09-23T09:46:36.415Z,10.10
2022-09-23T09:49:12.010Z,15.50
2022-09-23T09:51:41.238Z,10.50
2022-09-23T09:54:23.297Z,8.80
2022-09-23T09:56:51.810Z,11.18
2022-09-23T09:59:25.827Z,7.55
2022-09-23T10:02:32.647Z,7.95
2022-09-23T10:05:02.410Z,8.38
2022-09-23T10:07:31.760Z,6.07
2022-09-23T10:10:28.915Z,5.03
2022-09-23T10:13:15.711Z,6.00
2022-09-23T10:15:45.171Z,5.47
2022-09-23T10:18:28.412Z,4.07
2022-09-23T10:21:08.421Z,3.47
2022-09-23T10:23:40.913Z,4.57
2022-09-23T10:26:12.358Z,5.72
2022-09-23T10:28:47.041Z,8.25
2022-09-23T10:31:24.696Z,6.38
2022-09-23T10:34:00.449Z,5.60
2022-09-23T10:36:29.468Z,5.10
2022-09-23T10:39:23.267Z,6.00
2022-09-23T10:42:37.765Z,5.68
2022-09-23T10:45:43.320Z,9.48
2022-09-23T10:48:27.201Z,6.60
2022-09-23T10:50:55.530Z,4.95
2022-09-23T10:53:57.102Z,6.88
2022-09-23T10:56:31.458Z,6.13
2022-09-23T10:59:01.050Z,4.80
2022-09-23T11:01:31.055Z,5.35
2022-09-23T11:04:33.218Z,4.93
2022-09-23T11:07:25.860Z,4.43
2022-09-23T11:10:28.993Z,5.00
2022-09-23T11:13:11.661Z,4.15
2022-09-23T11:15:56.797Z,5.13
2022-09-23T11:21:12.960Z,3.00
2022-09-23T11:24:07.104Z,2.55
2022-09-23T11:26:42.116Z,4.47
2022-09-23T11:29:35.390Z,3.17
2022-09-23T11:32:08.884Z,6.72
2022-09-23T11:35:13.620Z,4.07
2022-09-23T11:37:48.203Z,3.78
2022-09-23T11:40:35.475Z,3.70
2022-09-23T11:43:23.562Z,4.13
2022-09-23T11:45:58.969Z,3.35
2022-09-23T11:48:38.106Z,6.65
2022-09-23T11:51:19.726Z,6.93
2022-09-23T11:53:55.961Z,8.32
2022-09-23T11:56:35.197Z,6.70
2022-09-23T11:59:11.462Z,3.33
2022-09-23T12:01:47.361Z,7.43
2022-09-23T12:04:25.989Z,10.18
2022-09-23T12:07:01.114Z,6.45
2022-09-23T12:09:58.568Z,5.32
2022-09-23T12:12:39.422Z,10.30
2022-09-23T12:15:34.424Z,4.43
2022-09-23T12:18:48.685Z,3.17
2022-09-23T12:21:51.563Z,4.15
2022-09-23T12:24:39.313Z,4.03
2022-09-23T12:27:11.425Z,3.63
2022-09-23T12:29:40.428Z,5.25
2022-09-23T12:32:10.083Z,4.22
2022-09-23T12:34:47.933Z,5.88
2022-09-23T12:37:25.382Z,4.57
2022-09-23T12:39:52.399Z,4.50
2022-09-23T12:42:22.321Z,4.15
2022-09-23T12:44:50.613Z,5.63
2022-09-23T12:47:21.219Z,6.65
2022-09-23T12:49:48.603Z,4.88
2022-09-23T12:52:18.220Z,5.25
2022-09-23T12:54:47.043Z,7.32
2022-09-23T12:57:33.827Z,6.28
2022-09-23T13:00:13.319Z,7.38
2022-09-23T13:03:13.537Z,6.82
2022-09-23T13:06:06.136Z,5.28
2022-09-23T13:08:37.863Z,4.40
2022-09-23T13:11:08.565Z,4.72
2022-09-23T13:13:44.676Z,5.07
2022-09-23T13:16:29.614Z,6.55
2022-09-23T13:19:01.221Z,11.18
2022-09-23T13:21:43.019Z,7.75
2022-09-23T13:24:22.344Z,8.80
2022-09-23T13:27:02.089Z,6.63
2022-09-23T13:29:41.017Z,10.45
2022-09-23T13:32:12.794Z,8.50
2022-09-23T13:34:41.506Z,7.05
2022-09-23T13:37:21.603Z,8.25
2022-09-23T13:39:49.231Z,6.53
2022-09-23T13:42:28.660Z,5.90
2022-09-23T13:44:59.093Z,5.53
2022-09-23T13:47:29.439Z,6.82
2022-09-23T13:49:56.488Z,5.45
2022-09-23T13:52:32.880Z,5.82
2022-09-23T13:54:59.685Z,6.43
2022-09-23T13:57:29.463Z,14.23
2022-09-23T14:00:17.597Z,5.40
2022-09-23T14:02:44.484Z,5.35
2022-09-23T14:05:12.655Z,4.53
2022-09-23T14:07:39.776Z,6.57
2022-09-23T14:10:08.095Z,4.68
2022-09-23T14:12:39.395Z,7.20
2022-09-23T14:15:07.361Z,12.77
2022-09-23T14:17:33.937Z,7.10
2022-09-23T14:20:01.087Z,5.50
2022-09-23T14:22:29.854Z,3.75
2022-09-23T14:24:57.500Z,6.38
2022-09-23T14:27:28.879Z,5.30
2022-09-23T14:29:56.115Z,10.40
2022-09-23T14:32:27.572Z,12.30
2022-09-23T14:35:00.185Z,8.82
2022-09-23T14:37:56.775Z,6.88
2022-09-23T14:40:29.331Z,5.75
2022-09-23T14:43:02.270Z,4.88
2022-09-23T14:45:33.259Z,4.38
2022-09-23T14:48:04.903Z,5.55
2022-09-23T14:50:47.256Z,5.68
2022-09-23T14:53:22.815Z,3.78
2022-09-23T14:55:57.410Z,4.38
2022-09-23T14:58:28.090Z,4.18
2022-09-23T15:00:56.543Z,2.97
2022-09-23T15:03:23.674Z,2.60
2022-09-23T15:05:57.906Z,4.35
2022-09-23T15:08:27.628Z,2.83
2022-09-23T15:10:54.954Z,4.18
2022-09-23T15:13:27.361Z,6.65
2022-09-23T15:15:55.579Z,3.83
2022-09-23T15:18:28.160Z,7.30
2022-09-23T15:20:58.051Z,4.05
2022-09-23T15:23:36.330Z,6.72
2022-09-23T15:26:09.979Z,6.78
2022-09-23T15:28:36.530Z,4.88
2022-09-23T15:31:05.687Z,4.97
2022-09-23T15:33:32.666Z,5.07
2022-09-23T15:35:59.168Z,6.35
2022-09-23T15:38:27.258Z,4.80
2022-09-23T15:40:54.401Z,7.00
2022-09-23T15:43:24.148Z,4.72
2022-09-23T15:46:05.006Z,6.13
2022-09-23T15:48:38.799Z,3.42
2022-09-23T15:51:08.163Z,6.15
2022-09-23T15:53:35.616Z,4.03
2022-09-23T15:56:02.377Z,8.93
2022-09-23T15:58:29.056Z,4.85
2022-09-23T16:00:57.176Z,11.38
2022-09-23T16:03:30.892Z,5.70
2022-09-23T16:06:01.007Z,4.10
2022-09-23T16:08:28.381Z,4.38
2022-09-23T16:10:55.527Z,5.72
2022-09-23T16:13:22.284Z,4.47
2022-09-23T16:15:48.931Z,4.15
2022-09-23T16:18:15.585Z,2.72
2022-09-23T16:20:44.803Z,5.90
2022-09-23T16:23:34.545Z,4.57
2022-09-23T16:26:06.564Z,6.05
2022-09-23T16:28:33.200Z,6.45
2022-09-23T16:30:59.766Z,4.97
2022-09-23T16:33:27.716Z,6.80
2022-09-23T16:35:54.617Z,7.72
2022-09-23T16:38:21.204Z,9.15
2022-09-23T16:40:47.825Z,6.88
2022-09-23T16:43:14.578Z,6.32
2022-09-23T16:45:41.286Z,7.45
2022-09-23T16:48:07.880Z,6.35
2022-09-23T16:50:34.407Z,4.15
2022-09-23T16:53:01.374Z,5.53
2022-09-23T16:55:27.954Z,10.05
2022-09-23T16:57:55.442Z,8.02
2022-09-23T17:00:41.784Z,6.15
2022-09-23T17:03:29.917Z,7.18
2022-09-23T17:05:56.717Z,8.98
2022-09-23T17:08:23.291Z,6.30
2022-09-23T17:10:58.361Z,11.95
2022-09-23T17:13:26.089Z,12.02
2022-09-23T17:15:53.336Z,24.15
2022-09-23T17:18:20.767Z,10.32
2022-09-23T17:21:03.595Z,9.27
2022-09-23T17:23:31.761Z,10.20
2022-09-23T17:25:59.970Z,11.98
2022-09-23T17:28:26.871Z,12.52
2022-09-23T17:31:01.999Z,12.25
2022-09-23T17:33:30.874Z,19.58
2022-09-23T17:36:00.184Z,16.50
2022-09-23T17:38:29.286Z,9.23
2022-09-23T17:40:59.187Z,13.20
2022-09-23T17:43:26.026Z,12.25
2022-09-23T17:45:54.650Z,29.90
2022-09-23T17:48:25.502Z,16.17
2022-09-23T17:50:59.497Z,14.98
2022-09-23T17:53:26.264Z,14.93
2022-09-23T17:56:01.106Z,11.45
2022-09-23T18:00:56.799Z,14.25
2022-09-23T18:03:24.695Z,13.48
2022-09-23T18:05:52.000Z,14.13
2022-09-23T18:08:18.751Z,12.80
2022-09-23T18:10:45.284Z,17.75
2022-09-23T18:13:12.115Z,15.77
2022-09-23T18:15:39.847Z,15.05
2022-09-23T18:18:06.862Z,15.93
2022-09-23T18:20:33.539Z,15.30
2022-09-23T18:23:00.180Z,15.50
2022-09-23T18:25:39.312Z,17.73
2022-09-23T18:28:06.551Z,17.75
2022-09-23T18:30:33.610Z,22.20
2022-09-23T18:33:00.344Z,15.52
2022-09-23T18:35:26.857Z,13.60
2022-09-23T18:37:53.435Z,14.63
2022-09-23T18:40:20.066Z,14.07
2022-09-23T18:42:47.265Z,17.85
2022-09-23T18:45:13.783Z,14.68
2022-09-23T18:47:58.881Z,12.98
2022-09-23T18:50:40.379Z,15.57
2022-09-23T18:53:07.612Z,12.43
2022-09-23T18:55:35.503Z,15.07
2022-09-23T18:58:02.400Z,11.30
2022-09-23T19:00:30.035Z,15.40
2022-09-23T19:02:56.695Z,16.50
2022-09-23T19:05:23.235Z,15.95
2022-09-23T19:07:49.797Z,14.40
2022-09-23T19:10:16.461Z,17.70
2022-09-23T19:12:42.960Z,16.33
2022-09-23T19:15:09.637Z,12.48
2022-09-23T19:17:36.181Z,15.52
2022-09-23T19:20:02.732Z,18.20
2022-09-23T19:22:30.455Z,15.95
2022-09-23T19:24:56.959Z,16.13
2022-09-23T19:27:23.510Z,16.45
2022-09-23T19:29:50.261Z,18.10
2022-09-23T19:32:16.972Z,16.48
2022-09-23T19:34:45.205Z,18.58
2022-09-23T19:37:12.216Z,16.35
2022-09-23T19:39:40.668Z,16.45
2022-09-23T19:42:07.706Z,17.92
2022-09-23T19:44:37.807Z,16.67
2022-09-23T19:47:04.745Z,19.83
2022-09-23T19:49:31.387Z,18.92
2022-09-23T19:51:57.893Z,16.10
2022-09-23T19:54:26.964Z,19.25
2022-09-23T19:56:53.628Z,24.73
2022-09-23T19:59:20.139Z,17.48
2022-09-23T20:01:48.086Z,17.88
2022-09-23T20:04:15.838Z,20.13
2022-09-23T20:06:42.767Z,18.30
2022-09-23T20:09:09.442Z,18.88
2022-09-23T20:11:36.140Z,17.30
2022-09-23T20:14:04.943Z,19.92
2022-09-23T20:16:37.107Z,18.67
2022-09-23T20:19:04.856Z,15.65
2022-09-23T20:21:31.985Z,17.63
2022-09-23T20:23:58.699Z,21.90
2022-09-23T20:26:44.388Z,20.25
2022-09-23T20:29:11.328Z,22.35
2022-09-23T20:31:40.527Z,22.55
2022-09-23T20:34:08.278Z,17.60
2022-09-23T20:36:36.053Z,23.85
2022-09-23T20:39:07.991Z,20.98
2022-09-23T20:41:37.895Z,27.40
2022-09-23T20:44:07.530Z,18.33
2022-09-23T20:46:35.075Z,20.42
2022-09-23T20:49:02.472Z,20.33
2022-09-23T20:51:29.026Z,21.65
2022-09-23T20:53:55.663Z,20.50
2022-09-23T20:56:22.847Z,21.45
2022-09-23T20:58:50.787Z,23.65
2022-09-23T21:01:18.450Z,25.40
2022-09-23T21:03:48.264Z,19.85
2022-09-23T21:06:17.330Z,19.45
2022-09-23T21:08:44.662Z,21.48
2022-09-23T21:11:14.989Z,23.42
2022-09-23T21:13:49.182Z,18.70
2022-09-23T21:16:17.438Z,21.67
2022-09-23T21:18:44.667Z,22.92
2022-09-23T21:21:14.103Z,21.20
2022-09-23T21:23:42.034Z,28.45
2022-09-23T21:26:13.885Z,23.65
2022-09-23T21:28:45.172Z,22.33
2022-09-23T21:31:23.266Z,22.65
2022-09-23T21:33:54.138Z,23.25
2022-09-23T21:36:21.718Z,25.73
2022-09-23T21:38:48.226Z,25.85
2022-09-23T21:41:15.312Z,21.42
2022-09-23T21:43:41.898Z,22.02
2022-09-23T21:46:13.576Z,21.73
2022-09-23T21:48:41.941Z,24.55
2022-09-23T21:51:14.127Z,21.02
2022-09-23T21:53:41.830Z,19.30
2022-09-23T21:56:10.894Z,21.83
2022-09-23T21:58:39.065Z,20.08
2022-09-23T22:01:12.816Z,20.13
2022-09-23T22:03:39.725Z,24.13
2022-09-23T22:06:08.774Z,24.98
2022-09-23T22:08:38.234Z,21.92
2022-09-23T22:11:33.346Z,20.90
2022-09-23T22:14:02.388Z,24.52
2022-09-23T22:16:29.597Z,23.35
2022-09-23T22:18:58.396Z,25.10
2022-09-23T22:21:27.339Z,23.95
2022-09-23T22:23:57.058Z,25.30
2022-09-23T22:26:24.823Z,20.83
2022-09-23T22:29:10.244Z,20.58
2022-09-23T22:31:55.780Z,22.48
2022-09-23T22:34:48.632Z,27.75
2022-09-23T22:37:17.836Z,22.05
2022-09-23T22:39:44.817Z,26.42
2022-09-23T22:42:13.124Z,21.67
2022-09-23T22:44:39.829Z,24.67
2022-09-23T22:47:06.529Z,21.98
2022-09-23T22:49:33.139Z,29.20
2022-09-23T22:51:59.993Z,26.55
2022-09-23T22:54:33.783Z,24.75
2022-09-23T22:57:03.996Z,25.08
2022-09-23T22:59:30.634Z,24.52
2022-09-23T23:02:00.128Z,23.75
2022-09-23T23:04:27.262Z,26.50
2022-09-23T23:06:53.801Z,27.67
2022-09-23T23:09:20.374Z,22.45
2022-09-23T23:11:47.393Z,26.63
2022-09-23T23:14:16.825Z,25.25
2022-09-23T23:16:45.189Z,24.02
2022-09-23T23:19:14.267Z,32.13
2022-09-23T23:21:44.947Z,24.55
2022-09-23T23:24:16.930Z,23.40
2022-09-23T23:26:44.133Z,29.10
2022-09-23T23:29:16.034Z,22.85
2022-09-23T23:31:43.294Z,26.98
2022-09-23T23:34:28.241Z,24.35
2022-09-23T23:36:55.361Z,27.15
2022-09-23T23:39:23.762Z,23.70
2022-09-23T23:41:55.215Z,25.77
2022-09-23T23:44:23.715Z,26.60
2022-09-23T23:46:50.805Z,22.38
2022-09-23T23:49:17.444Z,28.00
2022-09-23T23:51:43.969Z,24.65
2022-09-23T23:54:11.945Z,25.02
2022-09-23T23:56:38.676Z,25.75
2022-09-23T23:59:05.211Z,30.45
